Forest Grove, MT (59441)

1:34 AM MDT on September 05, 2015 (GMT -0600)
3/4 mile S of Lewistown | | Change Station
CLOSE
Current Station
Personal Weather Station
Location: Lewistown, Mt
Elevation: 4189 ft
Nearby Weather Stations

Elev 4189 ft 47.04 °N, 109.42 °W | Updated 10 seconds ago

Overcast
Overcast
47.5 °F
Feels Like 48 °F
N
0.0
Wind Variable Wind from NE
Gusts 0.0 mph

Today
High -- | Low -- °F
--% Chance of Precip.
Yesterday
High -- | Low -- °F
Precip. -- in
6:40 AM 7:48 PM
Waning Gibbous, 51% visible
Pressure 29.97 in
Visibility 10.0 miles
Clouds Scattered Clouds 900 ft
Mostly Cloudy 1800 ft
Windchill 48 °F
Dew Point 46 °F
Humidity 93%
Rainfall 0.02 in
Snow Depth Not available.
UV 0 out of 12
Pollen 8.00 out of 12
Air Quality Not available.
Flu Activity Not available.
SPECI KLWT 050732Z AUTO 00000KT 10SM SCT009 BKN018 11/08 A2997 RMK AO2 LTG DSNT NE AND E RAE11 PRESRR P0000 T01060083
Pressure 29.97 in
Visibility 10.0 miles
Clouds Scattered Clouds 900 ft
Mostly Cloudy 1800 ft
Windchill 48 °F
Dew Point 46 °F
Humidity 93%
Rainfall 0.02 in
Snow Depth Not available.
UV 0 out of 12
Pollen 8.00 out of 12
Air Quality Not available.
Flu Activity Not available.
SPECI KLWT 050732Z AUTO 00000KT 10SM SCT009 BKN018 11/08 A2997 RMK AO2 LTG DSNT NE AND E RAE11 PRESRR P0000 T01060083

10-Day Weather Forecast

×

Almanac

Astronomy

Sep. 05, 2015 Rise Set
Actual Time
Civil Twilight
Nautical Twilight
Astronomical Twilight
Moon
Length of Visible Light
Length of Day
Tomorrow will be .
, % of the Moon is Illuminated

Today's Extremes

State Highs State Lows

Community

WunderPhotos

Upload Photos

1,852,436 photos uploaded!

WunderBlogs® & News

Nearby

Air Quality

  Air Quality AQ Index Pollutant
Not available.

Snow Depth

Station Depth Elevation

Earthquake Activity

City Distance Mag. Time & Date
Minimum magnitude displayed is 2.5.

Coastal Water Temperatures

Place Temperature

Stations

Nearby Weather Stations

Station Location Temp. Windchill Dew Point Humidity Wind Precip. Elev Updated Type